Flight Track Log - Related Links

Times and Time Zones

All times are in EDT time to prevent confusion due to time zone crossing. See the AAL1012 flight status page for this flight to view local times or setup timezone preferences in your user account.

Time Position Orientation Groundspeed Altitude Reporting Facility
EDT Latitude Longitude Course Direction KTS MPH feet Rate Location/Type
Sat 04:00:24 PM 25.8006 -80.2606 343° North 183 211 800  Level Miami Center
Sat 04:01:00 PM 25.7908 -80.2258 107° East 192 221 2,000 1,500 Climbing Miami Center
Sat 04:01:56 PM 25.7672 -80.1697 115° Southeast 243 280 3,100 1,641 Climbing Miami Center
Sat 04:02:00 PM 26.0067 -80.3617 336° Northwest  Level FlightAware Approximate
Sat 04:02:57 PM 25.7247 -80.1086 128° Southeast 254 292 5,200  Level Miami Center
Sat 04:03:00 PM 26.1173 -80.4069 340° North  Level FlightAware Approximate
Sat 04:03:58 PM 25.6636 -80.1300 198° South 256 295 7,200  Level Miami Center
Sat 04:04:00 PM 26.2290 -80.4485 343° North  Level FlightAware Approximate
Sat 04:04:43 PM 25.6561 -80.1806 261° West 264 304 8,300  Level Miami Center
Sat 04:04:59 PM 25.6494 -80.2058 254° West 259 298 9,200 2,400 Climbing Miami Center
Sat 04:05:00 PM 26.3419 -80.4862 343° North  Level FlightAware Approximate
Sat 04:05:43 PM 25.6481 -80.2633 268° West 274 315 10,700  Level Miami Center
Sat 04:06:43 PM 25.6006 -80.3264 230° Southwest 279 321 13,400 3,000 Climbing Miami Center
Sat 04:07:01 PM 25.5753 -80.3372 201° Southwest 285 328 14,600 2,100 Climbing Miami Center
Sat 04:07:43 PM 25.5311 -80.3522 197° South 293 337 15,500 765 Climbing Miami Center
Sat 04:08:43 PM 25.4444 -80.3886 201° Southwest 333 383 15,900 750 Climbing Miami Center
Sat 04:09:43 PM 25.3622 -80.4256 202° Southwest 333 383 17,000 1,800 Climbing Miami Center
Sat 04:10:43 PM 25.2736 -80.4594 199° South 338 389 19,500 1,450 Climbing Miami Center
Sat 04:11:43 PM 25.1869 -80.4961 201° Southwest 338 389 19,900 200 Climbing Miami Center
Sat 04:12:43 PM 25.0986 -80.5300 199° South 333 383 19,900 350 Level Miami Center
Sat 04:13:43 PM 25.0136 -80.5781 207° Southwest 328 377 20,600 1,300 Climbing Miami Center
Sat 04:14:43 PM 25.0217 -80.6744 275° West 257 296 22,500 1,800 Climbing Miami Center
Sat 04:15:43 PM 25.1192 -80.7075 343° North 224 258 24,200 1,800 Climbing Miami Center
Sat 04:16:43 PM 25.2272 -80.7247 352° North 295 339 26,100 1,300 Climbing Miami Center
Sat 04:17:43 PM 25.3394 -80.7442 351° North 352 405 26,800 800 Climbing Miami Center
Sat 04:18:43 PM 25.4600 -80.7664 351° North 399 459 27,700 1,000 Climbing Miami Center
Sat 04:19:43 PM 25.5869 -80.7889 351° North 439 505 28,800 1,400 Climbing Miami Center
Sat 04:20:43 PM 25.7156 -80.8139 350° North 461 531 30,500 1,550 Climbing Miami Center
Sat 04:21:43 PM 25.8425 -80.8367 351° North 466 536 31,900 1,400 Climbing Miami Center
Sat 04:22:43 PM 25.9672 -80.8569 352° North 461 531 33,300 1,350 Climbing Miami Center
Sat 04:23:43 PM 26.0900 -80.8772 352° North 461 531 34,600 800 Climbing Miami Center
Sat 04:24:43 PM 26.2125 -80.9000 351° North 450 518 34,900 200 Climbing Miami Center
Sat 04:25:43 PM 26.3164 -80.9219 349° North 425 489 35,000 50 Climbing Miami Center
Sat 04:26:44 PM 26.4492 -80.9450 351° North 430 495 35,000  Level Miami Center
Sat 04:27:43 PM 26.5575 -80.9628 352° North 436 502 35,000  Level Miami Center
Sat 04:28:43 PM 26.6925 -80.9883 350° North 441 507 35,000  Level Miami Center
Sat 04:29:43 PM 26.8106 -81.0136 349° North 436 502 35,000  Level Miami Center
Sat 04:30:43 PM 26.9333 -81.0364 351° North 436 502 35,000  Level Miami Center
Sat 04:31:43 PM 27.0536 -81.0572 351° North 436 502 35,000  Level Miami Center
Sat 04:32:43 PM 27.1494 -81.0675 355° North 436 502 35,000 -50 Level Miami Center
Sat 04:33:43 PM 27.2867 -81.0842 354° North 441 507 34,900  Descending Miami Center
Sat 04:34:43 PM 27.4178 -81.1056 352° North 441 507 35,000 50 Climbing Miami Center
Sat 04:35:43 PM 27.5403 -81.1217 353° North 441 507 35,000 -50 Level Miami Center
Sat 04:36:43 PM 27.6631 -81.1381 353° North 441 507 34,900  Descending Miami Center
Sat 04:37:43 PM 27.7836 -81.1567 352° North 441 507 35,000 50 Climbing Miami Center
Sat 04:38:43 PM 27.9064 -81.1683 355° North 446 513 35,000  Level Miami Center
Sat 04:39:44 PM 28.0267 -81.1869 352° North 441 507 35,000  Level Miami Center
Sat 04:40:43 PM 28.1494 -81.2033 353° North 441 507 35,000  Level Miami Center
Sat 04:41:43 PM 28.2594 -81.2169 354° North 441 507 35,000 -50 Level Miami Center
Sat 04:42:43 PM 28.3967 -81.2342 354° North 448 516 34,900  Descending Miami Center
Sat 04:43:43 PM 28.5192 -81.2531 352° North 448 516 35,000 50 Climbing Miami Center
Sat 04:44:43 PM 28.6169 -81.2642 354° North 448 516 35,000  Level Miami Center
Sat 04:45:40 PM 28.7450 -81.2872 351° North 441 507 35,000  Level Jacksonville Center
Sat 04:46:40 PM 28.8683 -81.3042 353° North 455 524 35,000  Level Jacksonville Center
Sat 04:47:40 PM 28.9961 -81.3233 353° North 460 529 35,000 -50 Level Jacksonville Center
Sat 04:48:40 PM 29.1236 -81.3403 353° North 460 529 34,900 -50 Descending Jacksonville Center
Sat 04:49:40 PM 29.2489 -81.3575 353° North 460 529 34,900 50 Level Jacksonville Center
Sat 04:50:40 PM 29.3764 -81.3744 353° North 465 535 35,000 50 Climbing Jacksonville Center
Sat 04:51:40 PM 29.5019 -81.3942 352° North 465 535 35,000  Level Jacksonville Center
Sat 04:52:40 PM 29.6314 -81.3992 358° North 460 529 35,000 350 Level Jacksonville Center
Sat 04:53:40 PM 29.7589 -81.3997 360° North 460 529 35,700 900 Climbing Jacksonville Center
Sat 04:54:40 PM 29.8861 -81.4025 359° North 460 529 36,800 650 Climbing Jacksonville Center
Sat 04:55:40 PM 30.0261 -81.4053 359° North 460 529 37,000 100 Climbing Jacksonville Center
Sat 04:56:40 PM 30.1514 -81.4081 359° North 460 529 37,000  Level Jacksonville Center
Sat 04:57:40 PM 30.2789 -81.4108 359° North 460 529 37,000  Level Jacksonville Center
Sat 04:58:40 PM 30.4061 -81.4136 359° North 460 529 37,000  Level Jacksonville Center
Sat 04:59:40 PM 30.5336 -81.4189 358° North 460 529 37,000  Level Jacksonville Center
Sat 05:00:40 PM 30.6611 -81.4219 359° North 460 529 37,000  Level Jacksonville Center
Sat 05:01:40 PM 30.7906 -81.4247 359° North 460 529 37,000  Level Jacksonville Center
Sat 05:02:40 PM 30.9178 -81.4275 359° North 460 529 37,000  Level Jacksonville Center
Sat 05:03:40 PM 31.0472 -81.4303 359° North 460 529 37,000  Level Jacksonville Center
Sat 05:05:00 PM 31.2049 -81.3281 33° Northeast  Level FlightAware Approximate
Sat 05:05:40 PM 31.2967 -81.3364 33° Northeast 468 539 37,000  Level Jacksonville Center
Sat 05:06:40 PM 31.3981 -81.2497 36° Northeast 488 562 37,000  Level Jacksonville Center
Sat 05:07:40 PM 31.5239 -81.1475 35° Northeast 493 567 37,000  Level Jacksonville Center
Sat 05:08:40 PM 31.6294 -81.0675 33° Northeast 498 573 37,000  Level Jacksonville Center
Sat 05:09:40 PM 31.7531 -80.9672 35° Northeast 498 573 37,000  Level Jacksonville Center
Sat 05:10:40 PM 31.8667 -80.8769 34° Northeast 498 573 37,000  Level Jacksonville Center
Sat 05:11:40 PM 31.9819 -80.7839 34° Northeast 498 573 37,000  Level Jacksonville Center
Sat 05:12:40 PM 32.0953 -80.6928 34° Northeast 498 573 37,000  Level Jacksonville Center
Sat 05:13:40 PM 32.2083 -80.5992 35° Northeast 493 567 37,000  Level Jacksonville Center
Sat 05:14:40 PM 32.3236 -80.5081 34° Northeast 504 580 37,000  Level Jacksonville Center
Sat 05:15:40 PM 32.4408 -80.4114 35° Northeast 504 580 37,000  Level Jacksonville Center
Sat 05:16:40 PM 32.5558 -80.3169 35° Northeast 504 580 37,000  Level Jacksonville Center
Sat 05:17:40 PM 32.6728 -80.2200 35° Northeast 504 580 37,000  Level Jacksonville Center
Sat 05:18:40 PM 32.7856 -80.1250 35° Northeast 504 580 37,000  Level Jacksonville Center
Sat 05:19:40 PM 32.8900 -80.0353 36° Northeast 504 580 37,000 -50 Level Jacksonville Center
Sat 05:20:40 PM 33.0022 -79.9303 38° Northeast 504 580 36,900 -50 Descending Jacksonville Center
Sat 05:21:40 PM 33.1125 -79.8250 39° Northeast 510 587 36,900 50 Level Jacksonville Center
Sat 05:22:40 PM 33.2206 -79.7219 39° Northeast 503 579 37,000 50 Climbing Jacksonville Center
Sat 05:23:40 PM 33.3306 -79.6161 39° Northeast 503 579 37,000  Level Jacksonville Center
Sat 05:24:40 PM 33.4383 -79.5100 39° Northeast 508 585 37,000 -200 Level Jacksonville Center
Sat 05:25:40 PM 33.5461 -79.4036 39° Northeast 508 585 36,600 -700 Descending Jacksonville Center
Sat 05:26:40 PM 33.6536 -79.2972 39° Northeast 508 585 35,600 -800 Descending Jacksonville Center
Sat 05:27:40 PM 33.7592 -79.1956 39° Northeast 501 577 35,000 -350 Descending Jacksonville Center
Sat 05:28:40 PM 33.8728 -79.0831 39° Northeast 509 586 34,900  Descending Jacksonville Center
Sat 05:29:40 PM 33.9822 -78.9733 40° Northeast 509 586 35,000 -474 Climbing Jacksonville Center
Sat 05:31:12 PM 34.1644 -78.7944 39° Northeast 547 629 33,700 -789 Descending Washington Center
Sat 05:32:12 PM 34.2781 -78.6833 39° Northeast 510 587 33,000 -350 Descending Washington Center
Sat 05:33:12 PM 34.3892 -78.5717 40° Northeast 503 579 33,000 -50 Level Washington Center
Sat 05:34:12 PM 34.5028 -78.4572 40° Northeast 515 593 32,900 -50 Descending Washington Center
Sat 05:35:12 PM 34.6117 -78.3425 41° Northeast 510 587 32,900 50 Level Washington Center
Sat 05:36:12 PM 34.7247 -78.2303 39° Northeast 522 601 33,000 50 Climbing Washington Center
Sat 05:37:12 PM 34.8231 -78.1219 42° Northeast 528 608 33,000  Level Washington Center
Sat 05:38:12 PM 34.9342 -78.0064 40° Northeast 528 608 33,000  Level Washington Center
Sat 05:39:12 PM 35.0511 -77.8881 40° Northeast 528 608 33,000  Level Washington Center
Sat 05:40:12 PM 35.1639 -77.7719 40° Northeast 534 615 33,000 -300 Level Washington Center
Sat 05:41:12 PM 35.2767 -77.6556 40° Northeast 534 615 32,400 -700 Descending Washington Center
Sat 05:42:12 PM 35.3911 -77.5411 39° Northeast 534 615 31,600 -700 Descending Washington Center
Sat 05:43:12 PM 35.5075 -77.4369 36° Northeast 523 602 31,000 -300 Descending Washington Center
Sat 05:44:12 PM 35.6258 -77.3372 34° Northeast 517 595 31,000  Level Washington Center
Sat 05:45:12 PM 35.7442 -77.2325 36° Northeast 517 595 31,000  Level Washington Center
Sat 05:46:12 PM 35.8711 -77.1147 37° Northeast 518 596 31,000  Level Washington Center
Sat 05:47:12 PM 35.9911 -77.0092 35° Northeast 518 596 31,000 -50 Level Washington Center
Sat 05:48:12 PM 36.1092 -76.9058 35° Northeast 518 596 30,900  Descending Washington Center
Sat 05:49:12 PM 36.2314 -76.7997 35° Northeast 524 603 31,000  Climbing Washington Center
Sat 05:50:12 PM 36.3514 -76.6931 36° Northeast 524 603 30,900 -50 Descending Washington Center
Sat 05:51:12 PM 36.4711 -76.5864 36° Northeast 524 603 30,900 -300 Level Washington Center
Sat 05:52:12 PM 36.5908 -76.4767 36° Northeast 524 603 30,300 -800 Descending Washington Center
Sat 05:53:12 PM 36.7083 -76.3717 36° Northeast 524 603 29,300 -650 Descending Washington Center
Sat 05:54:12 PM 36.8217 -76.2614 38° Northeast 524 603 29,000 -150 Descending Washington Center
Sat 05:55:12 PM 36.9453 -76.1689 31° Northeast 524 603 29,000  Level Washington Center
Sat 05:56:12 PM 37.0811 -76.1047 21° North 512 589 29,000  Level Washington Center
Sat 05:57:12 PM 37.2131 -76.0353 23° Northeast 507 583 29,000 -200 Level Washington Center
Sat 05:58:12 PM 37.3278 -75.9731 23° Northeast 500 575 28,600 -700 Descending Washington Center
Sat 05:59:12 PM 37.4575 -75.9031 23° Northeast 500 575 27,600 -950 Descending Washington Center
Sat 06:00:12 PM 37.5847 -75.8278 25° Northeast 500 575 26,700 -950 Descending Washington Center
Sat 06:01:12 PM 37.7081 -75.7308 32° Northeast 506 582 25,700 -1,000 Descending Washington Center
Sat 06:02:12 PM 37.8289 -75.6417 30° Northeast 506 582 24,700 -1,000 Descending Washington Center
Sat 06:03:12 PM 37.9458 -75.5575 30° Northeast 501 577 23,700 -1,050 Descending Washington Center
Sat 06:04:12 PM 38.0606 -75.4678 32° Northeast 489 563 22,600 -1,050 Descending Washington Center
Sat 06:05:12 PM 38.1792 -75.3911 27° Northeast 478 550 21,600 -1,000 Descending Washington Center
Sat 06:06:12 PM 38.2936 -75.3167 27° Northeast 471 542 20,600 -1,050 Descending Washington Center
Sat 06:07:12 PM 38.4167 -75.2419 25° Northeast 457 526 19,500 -1,500 Descending Washington Center
Sat 06:08:12 PM 38.5269 -75.1669 28° Northeast 444 511 17,600 -2,050 Descending Washington Center
Sat 06:09:12 PM 38.6350 -75.1000 26° Northeast 433 498 15,400 -1,300 Descending Washington Center
Sat 06:10:12 PM 38.7369 -75.0408 24° Northeast 421 484 15,000 -350 Descending Washington Center
Sat 06:11:12 PM 38.8453 -75.0319 North 390 449 14,700 -750 Descending Washington Center
Sat 06:12:12 PM 38.9514 -75.0203 North 390 449 13,500 -1,250 Descending Washington Center
Sat 06:13:12 PM 39.0536 -75.0117 North 384 442 12,200 -1,300 Descending Washington Center

Login

Don't have an account? Register now (free) for customized features, flight alerts, and more!